Time;durP1;ratioP1;P1;durP2;ratioP2;P2;SDS_P1;SDS_P2;PMS_P1;PMS_P2;Temp;Humidity;BMP_temperature;BMP_pressure;BME280_temperature;BME280_humidity;BME280_pressure;Samples;Min_cycle;Max_cycle;Signal;HPM_P1;HPM_P2
2022/03/13 00:00:11;;;;;;;52.35;16.63;;;;;;;;;;4883891;29;20039;-85
2022/03/13 00:02:40;;;;;;;44.90;15.10;;;;;;;;;;4883985;29;20096;-87
2022/03/13 00:05:08;;;;;;;46.88;14.60;;;;;;;;;;4883565;29;20394;-92
2022/03/13 00:07:38;;;;;;;41.92;14.82;;;;;;;;;;4883850;29;20036;-92
2022/03/13 00:10:05;;;;;;;35.45;13.02;;;;;;;;;;4884266;29;20056;-92
2022/03/13 00:12:32;;;;;;;38.67;13.05;;;;;;;;;;4900955;29;20060;-86
2022/03/13 00:15:05;;;;;;;34.80;13.13;;;;;;;;;;4883723;29;20048;-86
2022/03/13 00:17:31;;;;;;;46.55;14.30;;;;;;;;;;4883810;29;20056;-86
2022/03/13 00:20:02;;;;;;;52.83;16.83;;;;;;;;;;4884208;29;20083;-85
2022/03/13 00:22:29;;;;;;;43.22;17.55;;;;;;;;;;4883669;29;20028;-85
2022/03/13 00:24:56;;;;;;;51.92;18.40;;;;;;;;;;4886093;29;20088;-85
2022/03/13 00:27:22;;;;;;;52.70;17.83;;;;;;;;;;4900282;29;20036;-86
2022/03/13 00:29:49;;;;;;;46.78;17.15;;;;;;;;;;4883661;29;20028;-86
2022/03/13 00:32:16;;;;;;;43.08;15.70;;;;;;;;;;4883529;29;20165;-86
2022/03/13 00:34:43;;;;;;;39.03;14.23;;;;;;;;;;4886025;29;20363;-92
2022/03/13 00:37:10;;;;;;;38.88;13.32;;;;;;;;;;4883944;29;20024;-92
2022/03/13 00:39:40;;;;;;;30.13;12.80;;;;;;;;;;4884272;29;20036;-85
2022/03/13 00:42:06;;;;;;;36.65;15.52;;;;;;;;;;4883630;29;20069;-86
2022/03/13 00:44:33;;;;;;;41.03;13.73;;;;;;;;;;4883758;29;20033;-85
2022/03/13 00:46:59;;;;;;;48.92;17.98;;;;;;;;;;4883209;29;20138;-86
2022/03/13 00:49:26;;;;;;;85.22;26.17;;;;;;;;;;4883692;29;20045;-92
2022/03/13 00:51:52;;;;;;;71.53;22.90;;;;;;;;;;4883153;29;20486;-86
2022/03/13 00:54:18;;;;;;;65.78;21.45;;;;;;;;;;4887052;29;20064;-88
2022/03/13 00:56:44;;;;;;;52.70;18.23;;;;;;;;;;4883252;29;20490;-85
2022/03/13 00:59:10;;;;;;;61.28;18.35;;;;;;;;;;4900155;29;20036;-86
2022/03/13 01:01:37;;;;;;;46.88;16.83;;;;;;;;;;4900615;29;20025;-86
2022/03/13 01:04:03;;;;;;;61.78;18.98;;;;;;;;;;4901069;29;20032;-86
2022/03/13 01:06:29;;;;;;;52.20;17.50;;;;;;;;;;4885037;29;20032;-87
2022/03/13 01:08:55;;;;;;;43.30;14.65;;;;;;;;;;4902032;29;20401;-86
2022/03/13 01:11:23;;;;;;;32.13;13.57;;;;;;;;;;4899880;29;20107;-86
2022/03/13 01:13:49;;;;;;;36.25;14.15;;;;;;;;;;4883421;29;20435;-87
2022/03/13 01:16:17;;;;;;;31.95;11.00;;;;;;;;;;4883707;29;20052;-85
2022/03/13 01:18:51;;;;;;;29.30;11.07;;;;;;;;;;4884291;29;20443;-86
2022/03/13 01:21:17;;;;;;;33.85;11.00;;;;;;;;;;4883239;29;20545;-86
2022/03/13 01:24:04;;;;;;;41.00;12.90;;;;;;;;;;4883227;29;20025;-85
2022/03/13 01:26:37;;;;;;;43.95;14.43;;;;;;;;;;4865092;29;20063;-88
2022/03/13 01:29:14;;;;;;;54.75;16.85;;;;;;;;;;4883415;29;20037;-92
2022/03/13 01:31:41;;;;;;;56.30;16.45;;;;;;;;;;4899712;29;20025;-87
2022/03/13 01:34:11;;;;;;;50.38;15.82;;;;;;;;;;4906470;29;20032;-86
2022/03/13 01:36:37;;;;;;;47.33;14.90;;;;;;;;;;4897990;29;20020;-86
2022/03/13 01:39:06;;;;;;;55.85;14.40;;;;;;;;;;4902289;29;20459;-87
2022/03/13 01:41:35;;;;;;;44.15;15.00;;;;;;;;;;4902296;29;20038;-86
2022/03/13 01:44:02;;;;;;;46.92;15.27;;;;;;;;;;4886432;29;20029;-85
2022/03/13 01:46:29;;;;;;;39.15;13.55;;;;;;;;;;4900093;29;20036;-89
2022/03/13 01:48:59;;;;;;;32.03;12.60;;;;;;;;;;4882384;29;20132;-85
2022/03/13 01:51:26;;;;;;;41.58;14.45;;;;;;;;;;4901985;29;20043;-86
2022/03/13 01:53:54;;;;;;;29.10;11.18;;;;;;;;;;4882749;29;20100;-86
2022/03/13 01:56:21;;;;;;;30.80;10.57;;;;;;;;;;4899471;29;20059;-85
2022/03/13 01:58:49;;;;;;;34.80;10.48;;;;;;;;;;4899525;29;20164;-86
2022/03/13 02:01:16;;;;;;;30.48;9.95;;;;;;;;;;4906163;29;20025;-89
2022/03/13 02:03:44;;;;;;;27.27;10.88;;;;;;;;;;4889876;29;20032;-89
2022/03/13 02:06:11;;;;;;;30.25;10.45;;;;;;;;;;4889914;29;20116;-86
2022/03/13 02:08:37;;;;;;;34.22;10.35;;;;;;;;;;4888374;29;20037;-86
2022/03/13 02:11:03;;;;;;;27.85;10.48;;;;;;;;;;4888411;29;20024;-86
2022/03/13 02:13:31;;;;;;;28.88;10.10;;;;;;;;;;4905005;29;20033;-90
2022/03/13 02:15:57;;;;;;;34.08;9.73;;;;;;;;;;4889364;29;20035;-85
2022/03/13 02:18:24;;;;;;;23.92;9.80;;;;;;;;;;4888290;29;20059;-88
2022/03/13 02:20:50;;;;;;;27.25;9.45;;;;;;;;;;4890263;29;20083;-86
2022/03/13 02:23:23;;;;;;;24.08;9.13;;;;;;;;;;4889057;29;20080;-86
2022/03/13 02:25:54;;;;;;;25.80;9.73;;;;;;;;;;4890987;29;20036;-86
2022/03/13 02:28:21;;;;;;;19.50;8.73;;;;;;;;;;4891806;29;20064;-86
2022/03/13 02:30:48;;;;;;;21.83;8.48;;;;;;;;;;4905389;29;20025;-93
2022/03/13 02:33:17;;;;;;;18.75;7.80;;;;;;;;;;4889627;29;20135;-85
2022/03/13 02:35:43;;;;;;;25.35;9.60;;;;;;;;;;4904912;29;20028;-85
2022/03/13 02:38:09;;;;;;;22.88;8.77;;;;;;;;;;4904706;29;20036;-86
2022/03/13 02:40:35;;;;;;;20.67;8.13;;;;;;;;;;4889293;29;20071;-92
2022/03/13 02:43:02;;;;;;;25.70;8.52;;;;;;;;;;4888383;29;20028;-84
2022/03/13 02:45:30;;;;;;;21.02;8.18;;;;;;;;;;4887893;29;20060;-86
2022/03/13 02:47:58;;;;;;;21.48;7.90;;;;;;;;;;4905543;29;20108;-92
2022/03/13 02:50:24;;;;;;;19.10;7.93;;;;;;;;;;4888215;29;20548;-86
2022/03/13 02:52:50;;;;;;;23.00;9.02;;;;;;;;;;4888930;29;20045;-92
2022/03/13 02:55:17;;;;;;;22.52;8.82;;;;;;;;;;4888116;29;20043;-90
2022/03/13 02:57:43;;;;;;;19.98;7.55;;;;;;;;;;4887705;29;20067;-86
2022/03/13 03:00:09;;;;;;;18.77;7.00;;;;;;;;;;4889365;29;20478;-86
2022/03/13 03:02:36;;;;;;;26.20;7.25;;;;;;;;;;4888797;29;20075;-85
2022/03/13 03:05:08;;;;;;;25.52;8.65;;;;;;;;;;4889170;29;20027;-86
2022/03/13 03:07:35;;;;;;;18.02;7.65;;;;;;;;;;4886033;29;20517;-86
2022/03/13 03:10:02;;;;;;;21.90;7.93;;;;;;;;;;4886278;29;20036;-89
2022/03/13 03:12:28;;;;;;;20.58;8.27;;;;;;;;;;4886389;29;20024;-85
2022/03/13 03:14:55;;;;;;;24.02;8.48;;;;;;;;;;4886117;29;20064;-86
2022/03/13 03:17:21;;;;;;;20.30;8.95;;;;;;;;;;4886316;29;20025;-85
2022/03/13 03:19:47;;;;;;;21.75;9.23;;;;;;;;;;4884827;29;20379;-86
2022/03/13 03:22:15;;;;;;;22.45;7.97;;;;;;;;;;4884472;29;20139;-86
2022/03/13 03:24:41;;;;;;;20.90;8.23;;;;;;;;;;4884396;29;20032;-92
2022/03/13 03:27:07;;;;;;;19.80;7.93;;;;;;;;;;4884866;29;20478;-87
2022/03/13 03:29:34;;;;;;;20.58;8.38;;;;;;;;;;4884463;29;20497;-92
2022/03/13 03:32:02;;;;;;;20.13;7.82;;;;;;;;;;4884170;29;20029;-85
2022/03/13 03:34:28;;;;;;;24.58;7.72;;;;;;;;;;4884543;29;20107;-92
2022/03/13 03:36:56;;;;;;;25.85;8.68;;;;;;;;;;4884856;29;20033;-85
2022/03/13 03:39:23;;;;;;;20.48;7.20;;;;;;;;;;4885199;29;20036;-86
2022/03/13 03:41:51;;;;;;;23.15;7.85;;;;;;;;;;4885761;29;20028;-85
2022/03/13 03:44:18;;;;;;;18.33;7.85;;;;;;;;;;4885020;29;20474;-91
2022/03/13 03:46:45;;;;;;;23.35;8.65;;;;;;;;;;4884192;29;20036;-91
2022/03/13 03:49:11;;;;;;;20.90;6.60;;;;;;;;;;4902479;29;20119;-86
2022/03/13 03:51:38;;;;;;;20.50;7.75;;;;;;;;;;4885176;29;20035;-86
2022/03/13 03:54:05;;;;;;;19.42;7.70;;;;;;;;;;4884895;29;20505;-85
2022/03/13 03:56:31;;;;;;;17.15;7.38;;;;;;;;;;4884598;29;20095;-85
2022/03/13 03:58:58;;;;;;;19.80;7.18;;;;;;;;;;4889833;29;20040;-90
2022/03/13 04:01:24;;;;;;;17.45;7.10;;;;;;;;;;4886073;29;20060;-85
2022/03/13 04:03:50;;;;;;;21.48;6.63;;;;;;;;;;4907284;29;20019;-86
2022/03/13 04:06:18;;;;;;;16.05;7.30;;;;;;;;;;4902856;29;20044;-85
2022/03/13 04:08:44;;;;;;;17.95;6.80;;;;;;;;;;4893528;29;20036;-86
2022/03/13 04:11:12;;;;;;;21.73;7.40;;;;;;;;;;4884950;29;20032;-93
2022/03/13 04:13:38;;;;;;;20.40;7.55;;;;;;;;;;4885744;29;20028;-85
2022/03/13 04:16:08;;;;;;;14.43;7.20;;;;;;;;;;4886562;29;20115;-86
2022/03/13 04:18:35;;;;;;;19.40;7.20;;;;;;;;;;4883828;29;20036;-86
2022/03/13 04:21:03;;;;;;;19.58;8.02;;;;;;;;;;4884284;29;20080;-86
2022/03/13 04:23:29;;;;;;;17.80;6.88;;;;;;;;;;4884628;29;20048;-86
2022/03/13 04:25:55;;;;;;;19.20;8.18;;;;;;;;;;4885951;29;20071;-86
2022/03/13 04:28:22;;;;;;;20.52;7.53;;;;;;;;;;4899307;29;20117;-84
2022/03/13 04:30:59;;;;;;;17.02;8.57;;;;;;;;;;4888560;29;20028;-85
2022/03/13 04:33:26;;;;;;;21.65;8.18;;;;;;;;;;4888687;29;20097;-85
2022/03/13 04:35:54;;;;;;;17.42;7.85;;;;;;;;;;4883619;29;20032;-85
2022/03/13 04:38:21;;;;;;;19.80;7.35;;;;;;;;;;4883074;29;20059;-86
2022/03/13 04:40:47;;;;;;;21.55;8.68;;;;;;;;;;4900725;29;20020;-86
2022/03/13 04:43:13;;;;;;;22.85;8.68;;;;;;;;;;4883109;29;20088;-89
2022/03/13 04:45:39;;;;;;;23.83;8.13;;;;;;;;;;4883270;29;20439;-85
2022/03/13 04:48:05;;;;;;;26.38;8.93;;;;;;;;;;4882761;29;20070;-85
2022/03/13 04:50:32;;;;;;;17.67;8.70;;;;;;;;;;4883547;29;20032;-92
2022/03/13 04:53:03;;;;;;;24.42;8.20;;;;;;;;;;4884183;29;20038;-92
2022/03/13 04:55:29;;;;;;;18.40;8.63;;;;;;;;;;4883350;29;20033;-87
2022/03/13 04:57:56;;;;;;;20.38;8.63;;;;;;;;;;4899854;29;20509;-87
2022/03/13 05:00:25;;;;;;;21.52;8.82;;;;;;;;;;4883242;29;20034;-86
2022/03/13 05:02:51;;;;;;;22.67;9.38;;;;;;;;;;4884268;29;20497;-89
2022/03/13 05:05:18;;;;;;;22.52;9.32;;;;;;;;;;4883208;29;20029;-86
2022/03/13 05:07:44;;;;;;;26.75;9.93;;;;;;;;;;4882480;29;20044;-86
2022/03/13 05:10:11;;;;;;;22.98;9.35;;;;;;;;;;4882966;29;20439;-87
2022/03/13 05:12:38;;;;;;;21.40;8.88;;;;;;;;;;4899913;29;20044;-87
2022/03/13 05:15:05;;;;;;;25.95;9.48;;;;;;;;;;4899854;29;20032;-87
2022/03/13 05:17:31;;;;;;;24.02;9.40;;;;;;;;;;4882617;29;20479;-86
2022/03/13 05:19:57;;;;;;;30.33;9.30;;;;;;;;;;4884169;29;20029;-87
2022/03/13 05:22:23;;;;;;;25.67;10.48;;;;;;;;;;4883872;29;20028;-87
2022/03/13 05:24:50;;;;;;;26.95;9.95;;;;;;;;;;4899524;29;20083;-86
2022/03/13 05:27:16;;;;;;;38.58;9.88;;;;;;;;;;4883209;29;20490;-87
2022/03/13 05:29:42;;;;;;;23.83;10.45;;;;;;;;;;4881717;29;20394;-87
2022/03/13 05:32:09;;;;;;;21.80;9.63;;;;;;;;;;4882936;29;20040;-86
2022/03/13 05:34:35;;;;;;;26.70;9.77;;;;;;;;;;4899098;29;20375;-86
2022/03/13 05:37:01;;;;;;;33.03;12.05;;;;;;;;;;4882686;29;20169;-86
2022/03/13 05:39:27;;;;;;;28.90;11.27;;;;;;;;;;4899253;29;20485;-87
2022/03/13 05:41:55;;;;;;;32.03;11.38;;;;;;;;;;4886394;29;20088;-87
2022/03/13 05:44:22;;;;;;;34.30;11.75;;;;;;;;;;4882467;29;20035;-86
2022/03/13 05:46:49;;;;;;;25.40;11.57;;;;;;;;;;4882065;29;20131;-86
2022/03/13 05:49:15;;;;;;;29.05;12.00;;;;;;;;;;4882489;29;20080;-86
2022/03/13 05:51:42;;;;;;;29.17;11.50;;;;;;;;;;4884531;29;20084;-87
2022/03/13 05:54:09;;;;;;;31.75;11.90;;;;;;;;;;4882181;29;20474;-86
2022/03/13 05:56:36;;;;;;;27.60;10.65;;;;;;;;;;4884439;29;20032;-86
2022/03/13 05:59:02;;;;;;;30.40;11.95;;;;;;;;;;4883043;29;20032;-88
2022/03/13 06:01:28;;;;;;;31.10;11.60;;;;;;;;;;4884278;29;20466;-87
2022/03/13 06:03:55;;;;;;;35.28;10.85;;;;;;;;;;4882167;29;20040;-85
2022/03/13 06:06:21;;;;;;;25.05;11.32;;;;;;;;;;4900542;29;20020;-90
2022/03/13 06:08:48;;;;;;;29.52;10.73;;;;;;;;;;4884050;29;20060;-86
2022/03/13 06:11:14;;;;;;;26.75;9.40;;;;;;;;;;4883664;29;20024;-85
2022/03/13 06:13:40;;;;;;;20.15;8.45;;;;;;;;;;4882022;29;20108;-85
2022/03/13 06:16:06;;;;;;;25.58;10.50;;;;;;;;;;4884653;29;20036;-86
2022/03/13 06:18:33;;;;;;;21.02;10.70;;;;;;;;;;4881904;29;20041;-87
2022/03/13 06:21:00;;;;;;;25.05;11.70;;;;;;;;;;4881976;29;20033;-89
2022/03/13 06:23:28;;;;;;;25.40;11.20;;;;;;;;;;4882182;29;20028;-89
2022/03/13 06:25:57;;;;;;;24.67;10.80;;;;;;;;;;4884169;29;20036;-87
2022/03/13 06:28:23;;;;;;;23.58;10.10;;;;;;;;;;4882556;29;20032;-87
2022/03/13 06:30:50;;;;;;;26.48;9.68;;;;;;;;;;4883612;29;20104;-87
2022/03/13 06:33:27;;;;;;;22.33;8.23;;;;;;;;;;4898830;29;20134;-90
2022/03/13 06:35:53;;;;;;;13.77;5.20;;;;;;;;;;4882048;29;20083;-88
2022/03/13 06:38:19;;;;;;;16.25;5.13;;;;;;;;;;4881849;29;20036;-87
2022/03/13 06:40:45;;;;;;;20.48;5.40;;;;;;;;;;4882995;29;20025;-87
2022/03/13 06:43:12;;;;;;;9.35;5.03;;;;;;;;;;4885726;29;20111;-87
2022/03/13 06:45:38;;;;;;;16.75;6.68;;;;;;;;;;4886171;29;20032;-88
2022/03/13 06:48:05;;;;;;;14.55;6.53;;;;;;;;;;4886411;29;20057;-94
2022/03/13 06:50:31;;;;;;;12.80;5.65;;;;;;;;;;4884965;29;20112;-87
2022/03/13 06:52:59;;;;;;;16.23;6.05;;;;;;;;;;4901755;29;20120;-87
2022/03/13 06:55:26;;;;;;;15.13;6.30;;;;;;;;;;4887308;29;20033;-87
2022/03/13 06:57:52;;;;;;;14.73;5.97;;;;;;;;;;4894350;29;20036;-87
2022/03/13 07:00:19;;;;;;;16.60;6.07;;;;;;;;;;4899060;29;20037;-85
2022/03/13 07:02:45;;;;;;;13.75;5.85;;;;;;;;;;4903426;29;20088;-87
2022/03/13 07:05:12;;;;;;;14.27;4.93;;;;;;;;;;4886172;29;20099;-92
2022/03/13 07:07:38;;;;;;;12.80;5.13;;;;;;;;;;4884933;29;20541;-92
2022/03/13 07:10:06;;;;;;;10.85;4.40;;;;;;;;;;4884815;29;20033;-87
2022/03/13 07:12:32;;;;;;;10.38;3.92;;;;;;;;;;4901470;29;20035;-86
2022/03/13 07:14:58;;;;;;;14.73;5.35;;;;;;;;;;4884329;29;20043;-87
2022/03/13 07:17:24;;;;;;;9.68;4.53;;;;;;;;;;4884969;29;20032;-87
2022/03/13 07:19:51;;;;;;;12.20;5.15;;;;;;;;;;4884344;29;20035;-86
2022/03/13 07:22:18;;;;;;;10.48;4.50;;;;;;;;;;4884471;29;20396;-91
2022/03/13 07:24:46;;;;;;;14.52;4.93;;;;;;;;;;4884597;29;20183;-87
2022/03/13 07:27:13;;;;;;;13.02;4.10;;;;;;;;;;4883968;29;20055;-88
2022/03/13 07:29:40;;;;;;;9.73;3.78;;;;;;;;;;4884112;29;20406;-88
2022/03/13 07:32:06;;;;;;;9.60;4.60;;;;;;;;;;4884540;29;20031;-88
2022/03/13 07:34:32;;;;;;;7.53;4.10;;;;;;;;;;4900829;29;20116;-87
2022/03/13 07:36:58;;;;;;;11.93;4.43;;;;;;;;;;4883778;29;20512;-87
2022/03/13 07:39:26;;;;;;;10.77;4.47;;;;;;;;;;4900760;29;20033;-92
2022/03/13 07:41:55;;;;;;;11.10;4.95;;;;;;;;;;4884035;29;20033;-89
2022/03/13 07:44:22;;;;;;;12.93;4.65;;;;;;;;;;4900652;29;20029;-87
2022/03/13 07:46:48;;;;;;;9.52;4.43;;;;;;;;;;4883574;29;20092;-87
2022/03/13 07:49:14;;;;;;;12.18;5.55;;;;;;;;;;4886795;29;20048;-88
2022/03/13 07:51:40;;;;;;;7.95;4.22;;;;;;;;;;4884129;29;20028;-87
2022/03/13 07:54:07;;;;;;;12.70;4.47;;;;;;;;;;4883571;29;20036;-92
2022/03/13 07:56:33;;;;;;;12.27;5.20;;;;;;;;;;4884155;29;20025;-88
2022/03/13 07:58:59;;;;;;;11.30;4.90;;;;;;;;;;4883677;29;20029;-87
2022/03/13 08:01:25;;;;;;;19.95;4.80;;;;;;;;;;4884469;29;20040;-88
2022/03/13 08:03:53;;;;;;;15.13;5.70;;;;;;;;;;4884533;29;20033;-88
2022/03/13 08:06:19;;;;;;;11.73;5.05;;;;;;;;;;4885220;29;20028;-87
2022/03/13 08:08:45;;;;;;;10.43;5.05;;;;;;;;;;4900514;29;20040;-87
2022/03/13 08:11:11;;;;;;;11.80;5.35;;;;;;;;;;4883671;29;20036;-87
2022/03/13 08:13:38;;;;;;;10.55;4.60;;;;;;;;;;4883579;29;20044;-87
2022/03/13 08:16:04;;;;;;;11.52;4.90;;;;;;;;;;4883219;29;20032;-87
2022/03/13 08:18:31;;;;;;;11.95;4.90;;;;;;;;;;4900069;29;20033;-88
2022/03/13 08:20:57;;;;;;;11.77;4.82;;;;;;;;;;4899824;29;20024;-86
2022/03/13 08:23:23;;;;;;;9.20;4.30;;;;;;;;;;4884071;29;20043;-86
2022/03/13 08:25:50;;;;;;;9.43;4.72;;;;;;;;;;4883329;29;20438;-87
2022/03/13 08:28:16;;;;;;;10.13;4.72;;;;;;;;;;4883087;29;20040;-87
2022/03/13 08:30:42;;;;;;;12.25;4.20;;;;;;;;;;4882978;29;20529;-88
2022/03/13 08:33:09;;;;;;;25.63;6.88;;;;;;;;;;4882981;29;20036;-86
2022/03/13 08:35:35;;;;;;;11.13;4.45;;;;;;;;;;4883121;29;20059;-87
2022/03/13 08:38:01;;;;;;;8.45;4.25;;;;;;;;;;4882916;29;20029;-93
2022/03/13 08:40:29;;;;;;;9.93;4.20;;;;;;;;;;4882772;29;20103;-86
2022/03/13 08:42:56;;;;;;;8.98;4.32;;;;;;;;;;4883102;29;20029;-87
2022/03/13 08:45:22;;;;;;;9.02;3.92;;;;;;;;;;4882567;29;20394;-90
2022/03/13 08:47:48;;;;;;;8.52;4.03;;;;;;;;;;4882393;29;20064;-87
2022/03/13 08:50:16;;;;;;;9.55;4.47;;;;;;;;;;4882551;29;20486;-87
2022/03/13 08:52:42;;;;;;;9.98;4.15;;;;;;;;;;4883086;29;20031;-87
2022/03/13 08:55:13;;;;;;;9.25;4.45;;;;;;;;;;4882838;29;20084;-87
2022/03/13 08:57:41;;;;;;;9.50;4.55;;;;;;;;;;4899621;29;20024;-87
2022/03/13 09:00:08;;;;;;;10.85;3.88;;;;;;;;;;4882584;29;20052;-86
2022/03/13 09:02:34;;;;;;;18.13;9.00;;;;;;;;;;4882290;29;20184;-89
2022/03/13 09:05:00;;;;;;;12.98;5.25;;;;;;;;;;4882328;29;20482;-86
2022/03/13 09:07:27;;;;;;;10.48;5.13;;;;;;;;;;4882725;29;20025;-87
2022/03/13 09:09:53;;;;;;;11.25;4.30;;;;;;;;;;4882530;29;20505;-87
2022/03/13 09:12:19;;;;;;;9.85;4.05;;;;;;;;;;4882602;29;20035;-92
2022/03/13 09:14:46;;;;;;;7.28;2.90;;;;;;;;;;4882780;29;20661;-86
2022/03/13 09:17:13;;;;;;;8.50;3.63;;;;;;;;;;4882687;29;20052;-86
2022/03/13 09:19:40;;;;;;;11.77;4.38;;;;;;;;;;4883716;29;20029;-87
2022/03/13 09:22:14;;;;;;;8.88;4.28;;;;;;;;;;4882811;29;20056;-90
2022/03/13 09:24:40;;;;;;;8.77;3.97;;;;;;;;;;4882753;29;20056;-87
2022/03/13 09:27:06;;;;;;;8.23;4.38;;;;;;;;;;4884681;29;20156;-87
2022/03/13 09:29:33;;;;;;;12.55;5.82;;;;;;;;;;4884806;29;20184;-86
2022/03/13 09:32:01;;;;;;;8.63;4.53;;;;;;;;;;4892951;29;20032;-87
2022/03/13 09:34:27;;;;;;;7.70;3.67;;;;;;;;;;4887477;29;20032;-91
2022/03/13 09:36:53;;;;;;;11.95;3.38;;;;;;;;;;4882139;29;20043;-86
2022/03/13 09:39:20;;;;;;;10.18;3.72;;;;;;;;;;4882114;29;20029;-86
2022/03/13 09:41:46;;;;;;;8.45;3.78;;;;;;;;;;4881907;29;20029;-89
2022/03/13 09:44:12;;;;;;;7.25;4.20;;;;;;;;;;4882214;29;20036;-89
2022/03/13 09:46:39;;;;;;;8.88;3.60;;;;;;;;;;4881618;29;20029;-86
2022/03/13 09:49:05;;;;;;;4.07;2.33;;;;;;;;;;4882328;29;20056;-87
2022/03/13 09:51:31;;;;;;;11.43;5.78;;;;;;;;;;4881809;29;20024;-88
2022/03/13 09:53:58;;;;;;;8.15;3.67;;;;;;;;;;4881753;29;20036;-92
2022/03/13 09:56:25;;;;;;;9.93;4.15;;;;;;;;;;4881823;29;20044;-86
2022/03/13 09:58:51;;;;;;;10.07;4.35;;;;;;;;;;4881335;29;20045;-87
2022/03/13 10:01:17;;;;;;;7.13;3.30;;;;;;;;;;4881604;29;20028;-88
2022/03/13 10:03:43;;;;;;;7.80;3.42;;;;;;;;;;4881599;29;20048;-86
2022/03/13 10:06:10;;;;;;;7.00;3.60;;;;;;;;;;4882435;29;20031;-86
2022/03/13 10:08:36;;;;;;;10.68;4.80;;;;;;;;;;4881596;29;20402;-86
2022/03/13 10:11:03;;;;;;;8.20;3.60;;;;;;;;;;4881588;29;20482;-91
2022/03/13 10:13:38;;;;;;;11.85;4.40;;;;;;;;;;4881769;29;20032;-86
2022/03/13 10:16:05;;;;;;;7.43;3.50;;;;;;;;;;4882865;29;20418;-89
2022/03/13 10:18:32;;;;;;;8.88;3.75;;;;;;;;;;4886251;29;20029;-86
2022/03/13 10:21:06;;;;;;;9.00;3.25;;;;;;;;;;4885277;29;20482;-87
2022/03/13 10:23:32;;;;;;;9.15;3.17;;;;;;;;;;4902267;29;20024;-87
2022/03/13 10:25:58;;;;;;;7.13;3.20;;;;;;;;;;4885518;29;20028;-86
2022/03/13 10:28:32;;;;;;;10.93;4.03;;;;;;;;;;4890744;29;20044;-87
2022/03/13 10:30:58;;;;;;;21.92;7.05;;;;;;;;;;4888478;29;20032;-91
2022/03/13 10:33:26;;;;;;;7.20;3.25;;;;;;;;;;4887032;29;20430;-88
2022/03/13 10:36:06;;;;;;;8.35;3.22;;;;;;;;;;4886073;29;20032;-87
2022/03/13 10:38:34;;;;;;;6.72;1.70;;;;;;;;;;4887482;29;20025;-86
2022/03/13 10:41:01;;;;;;;6.03;3.17;;;;;;;;;;4885297;29;20028;-87
2022/03/13 10:43:29;;;;;;;6.15;3.25;;;;;;;;;;4886460;29;20028;-87
2022/03/13 10:45:57;;;;;;;4.95;2.90;;;;;;;;;;4885082;29;20032;-92
2022/03/13 10:48:28;;;;;;;21.13;7.47;;;;;;;;;;4884875;29;20048;-88
2022/03/13 10:50:55;;;;;;;8.68;4.10;;;;;;;;;;4886314;29;20039;-88
2022/03/13 10:53:22;;;;;;;8.50;2.40;;;;;;;;;;4901553;29;20024;-87
2022/03/13 10:56:11;;;;;;;6.25;2.92;;;;;;;;;;4883644;29;20032;-87
2022/03/13 10:58:39;;;;;;;10.60;4.03;;;;;;;;;;4878973;29;20057;-88
2022/03/13 11:01:05;;;;;;;7.10;2.85;;;;;;;;;;4886255;29;20033;-89
2022/03/13 11:03:33;;;;;;;9.13;4.00;;;;;;;;;;4885131;29;20088;-92
2022/03/13 11:05:59;;;;;;;7.57;3.30;;;;;;;;;;4902151;29;20052;-86
2022/03/13 11:08:26;;;;;;;7.95;3.17;;;;;;;;;;4884770;29;20036;-87
2022/03/13 11:10:52;;;;;;;8.38;3.47;;;;;;;;;;4888458;29;20080;-86
2022/03/13 11:13:21;;;;;;;8.68;3.20;;;;;;;;;;4890100;29;20029;-92
2022/03/13 11:15:48;;;;;;;8.38;3.40;;;;;;;;;;4886771;29;20132;-86
2022/03/13 11:18:17;;;;;;;6.53;2.67;;;;;;;;;;4901081;29;20704;-87
2022/03/13 11:20:43;;;;;;;5.00;2.85;;;;;;;;;;4885262;29;20035;-86
2022/03/13 11:23:10;;;;;;;4.18;2.33;;;;;;;;;;4885815;29;20029;-87
2022/03/13 11:25:36;;;;;;;6.45;2.40;;;;;;;;;;4885361;29;20029;-87
2022/03/13 11:28:03;;;;;;;8.52;3.13;;;;;;;;;;4884233;29;20045;-86
2022/03/13 11:30:37;;;;;;;5.97;2.53;;;;;;;;;;4885840;29;20028;-87
2022/03/13 11:33:03;;;;;;;4.28;2.50;;;;;;;;;;4893357;29;20505;-85
2022/03/13 11:35:30;;;;;;;4.22;2.25;;;;;;;;;;4902659;29;20033;-86
2022/03/13 11:38:05;;;;;;;5.90;3.10;;;;;;;;;;4885707;29;20036;-87
2022/03/13 11:40:34;;;;;;;5.65;2.60;;;;;;;;;;4885327;29;20056;-91
2022/03/13 11:43:06;;;;;;;11.02;3.05;;;;;;;;;;4885166;29;20035;-85
2022/03/13 11:45:34;;;;;;;8.48;3.33;;;;;;;;;;4923339;29;20023;-88
2022/03/13 11:48:08;;;;;;;6.97;2.92;;;;;;;;;;4916176;29;20045;-86
2022/03/13 11:50:58;;;;;;;7.55;3.00;;;;;;;;;;4917942;29;20048;-87
2022/03/13 11:53:28;;;;;;;6.28;2.55;;;;;;;;;;4900890;29;20043;-91
2022/03/13 11:56:00;;;;;;;6.63;2.75;;;;;;;;;;4900388;29;20040;-86
2022/03/13 11:58:40;;;;;;;4.97;2.42;;;;;;;;;;4899343;29;20474;-86
2022/03/13 12:01:07;;;;;;;7.03;3.25;;;;;;;;;;4899445;29;20098;-86
2022/03/13 12:03:33;;;;;;;7.72;3.55;;;;;;;;;;4900502;29;20398;-91
2022/03/13 12:06:00;;;;;;;7.68;3.67;;;;;;;;;;4900051;29;20029;-88
2022/03/13 12:08:46;;;;;;;10.38;4.68;;;;;;;;;;4901064;29;20041;-86
2022/03/13 12:11:34;;;;;;;6.28;3.10;;;;;;;;;;4906380;29;20047;-87
2022/03/13 12:14:00;;;;;;;8.45;4.05;;;;;;;;;;4904269;29;20029;-87
2022/03/13 12:16:26;;;;;;;18.73;6.75;;;;;;;;;;4900456;29;20029;-90
2022/03/13 12:19:00;;;;;;;13.07;5.30;;;;;;;;;;4898777;29;20518;-86
2022/03/13 12:21:27;;;;;;;8.20;3.08;;;;;;;;;;4899284;29;20036;-87
2022/03/13 12:23:53;;;;;;;6.50;2.95;;;;;;;;;;4898608;29;20127;-91
2022/03/13 12:26:31;;;;;;;6.60;2.58;;;;;;;;;;4899159;29;20028;-87
2022/03/13 12:28:58;;;;;;;8.13;3.13;;;;;;;;;;4899828;29;20422;-86
2022/03/13 12:31:27;;;;;;;18.92;7.90;;;;;;;;;;4898741;29;20029;-91
2022/03/13 12:33:54;;;;;;;15.75;5.80;;;;;;;;;;4900569;29;20029;-90
2022/03/13 12:36:23;;;;;;;17.38;5.40;;;;;;;;;;4899150;29;20033;-90
2022/03/13 12:38:53;;;;;;;6.35;2.53;;;;;;;;;;4898132;29;20032;-85
2022/03/13 12:41:23;;;;;;;11.63;3.65;;;;;;;;;;4899173;29;20029;-85
2022/03/13 12:43:52;;;;;;;9.88;3.33;;;;;;;;;;4900287;29;20028;-86
2022/03/13 12:46:19;;;;;;;9.50;4.38;;;;;;;;;;4899805;29;20029;-85
2022/03/13 12:48:55;;;;;;;7.88;3.15;;;;;;;;;;4899076;29;20105;-86
2022/03/13 12:51:35;;;;;;;12.77;4.00;;;;;;;;;;4898343;29;20037;-85
2022/03/13 12:54:02;;;;;;;14.15;5.10;;;;;;;;;;4898258;29;20085;-88
2022/03/13 12:56:30;;;;;;;11.77;5.55;;;;;;;;;;4899233;29;20553;-86
2022/03/13 12:58:57;;;;;;;12.20;4.80;;;;;;;;;;4899588;29;20021;-87
2022/03/13 13:01:23;;;;;;;7.75;3.28;;;;;;;;;;4898003;29;20036;-86
2022/03/13 13:03:53;;;;;;;8.60;4.38;;;;;;;;;;4899471;29;20402;-86
2022/03/13 13:06:29;;;;;;;10.40;3.72;;;;;;;;;;4897953;29;20051;-86
2022/03/13 13:08:55;;;;;;;6.93;3.17;;;;;;;;;;4897831;29;20568;-90
2022/03/13 13:11:29;;;;;;;7.13;2.90;;;;;;;;;;4898354;29;20474;-91
2022/03/13 13:13:59;;;;;;;8.40;3.45;;;;;;;;;;4897972;29;20071;-87
2022/03/13 13:16:30;;;;;;;7.20;3.90;;;;;;;;;;4898511;29;20032;-90
2022/03/13 13:18:57;;;;;;;7.63;3.53;;;;;;;;;;4899386;29;20470;-86
2022/03/13 13:21:36;;;;;;;13.73;2.72;;;;;;;;;;4897820;29;20024;-89
2022/03/13 13:24:18;;;;;;;6.65;3.30;;;;;;;;;;4897767;29;20028;-86
2022/03/13 13:26:44;;;;;;;9.48;4.43;;;;;;;;;;4897985;29;20044;-91
2022/03/13 13:29:10;;;;;;;6.15;2.80;;;;;;;;;;4899253;29;20455;-86
2022/03/13 13:31:36;;;;;;;6.68;2.60;;;;;;;;;;4897767;29;20025;-86
2022/03/13 13:34:18;;;;;;;6.65;2.75;;;;;;;;;;4897857;29;20028;-91
2022/03/13 13:36:44;;;;;;;5.78;2.30;;;;;;;;;;4897797;29;20037;-86
2022/03/13 13:39:11;;;;;;;5.18;2.67;;;;;;;;;;4898004;29;20029;-85
2022/03/13 13:41:39;;;;;;;5.03;2.42;;;;;;;;;;4897797;29;20037;-88
2022/03/13 13:44:06;;;;;;;4.90;2.60;;;;;;;;;;4898050;29;20497;-85
2022/03/13 13:46:32;;;;;;;9.40;3.75;;;;;;;;;;4898692;29;20095;-86
2022/03/13 13:48:59;;;;;;;8.02;3.35;;;;;;;;;;4900501;29;20048;-90
2022/03/13 13:51:29;;;;;;;6.68;3.40;;;;;;;;;;4900295;29;20028;-87
2022/03/13 13:54:08;;;;;;;10.55;3.85;;;;;;;;;;4900602;29;20114;-90
2022/03/13 13:56:35;;;;;;;12.65;4.15;;;;;;;;;;4900935;29;20028;-88
2022/03/13 13:59:29;;;;;;;10.73;4.30;;;;;;;;;;4902260;29;20034;-90
2022/03/13 14:02:05;;;;;;;11.10;4.63;;;;;;;;;;4900695;29;20371;-86
2022/03/13 14:04:32;;;;;;;9.40;4.25;;;;;;;;;;4900592;29;20036;-87
2022/03/13 14:07:01;;;;;;;6.32;3.40;;;;;;;;;;4902862;29;20032;-87
2022/03/13 14:09:28;;;;;;;9.75;3.97;;;;;;;;;;4903266;29;20044;-91
2022/03/13 14:11:55;;;;;;;9.48;4.20;;;;;;;;;;4900916;29;20107;-89
2022/03/13 14:14:21;;;;;;;8.38;3.95;;;;;;;;;;4906725;29;20032;-85
2022/03/13 14:16:48;;;;;;;6.50;2.70;;;;;;;;;;4902485;29;20119;-87
2022/03/13 14:19:14;;;;;;;6.38;3.13;;;;;;;;;;4903895;29;20092;-86
2022/03/13 14:21:41;;;;;;;6.38;2.63;;;;;;;;;;4902835;29;20025;-89
2022/03/13 14:24:11;;;;;;;11.85;4.28;;;;;;;;;;4924704;29;20032;-88
2022/03/13 14:26:37;;;;;;;7.25;3.10;;;;;;;;;;4921296;29;20036;-86
2022/03/13 14:29:04;;;;;;;12.35;4.38;;;;;;;;;;4928622;29;20048;-85
2022/03/13 14:31:30;;;;;;;19.50;5.25;;;;;;;;;;4902520;29;20028;-91
2022/03/13 14:33:57;;;;;;;60.95;16.58;;;;;;;;;;4900168;29;20504;-86